Time;durP1;ratioP1;P1;durP2;ratioP2;P2;SDS_P1;SDS_P2;PMS_P1;PMS_P2;Temp;Humidity;BMP_temperature;BMP_pressure;BME280_temperature;BME280_humidity;BME280_pressure;Samples;Min_cycle;Max_cycle;Signal;HPM_P1;HPM_P2
2023/09/25 00:00:23;;;;;;;16.58;7.10;;;;;;;;;;6324210;28;20434;-77
2023/09/25 00:03:29;;;;;;;15.20;7.25;;;;;;;;;;6315960;28;20067;-77
2023/09/25 00:06:34;;;;;;;17.00;7.07;;;;;;;;;;6329844;28;20044;-77
2023/09/25 00:09:40;;;;;;;13.27;6.60;;;;;;;;;;6308916;28;20147;-75
2023/09/25 00:12:44;;;;;;;10.95;6.78;;;;;;;;;;6285118;28;20036;-77
2023/09/25 00:15:49;;;;;;;16.80;7.80;;;;;;;;;;6342580;28;20028;-77
2023/09/25 00:18:52;;;;;;;13.65;6.63;;;;;;;;;;6312963;28;20230;-77
2023/09/25 00:21:58;;;;;;;12.18;6.05;;;;;;;;;;6313516;28;20044;-77
2023/09/25 00:25:04;;;;;;;15.32;6.80;;;;;;;;;;6345232;28;20036;-76
2023/09/25 00:28:10;;;;;;;13.27;6.60;;;;;;;;;;6298503;28;20048;-76
2023/09/25 00:31:14;;;;;;;15.05;6.30;;;;;;;;;;6307234;28;20036;-75
2023/09/25 00:34:16;;;;;;;10.70;5.60;;;;;;;;;;6325050;28;20047;-77
2023/09/25 00:37:19;;;;;;;14.60;6.20;;;;;;;;;;6296364;28;20092;-76
2023/09/25 00:40:26;;;;;;;16.65;6.93;;;;;;;;;;6314389;28;20036;-78
2023/09/25 00:43:31;;;;;;;12.48;5.80;;;;;;;;;;6313456;28;20408;-77
2023/09/25 00:46:33;;;;;;;14.38;5.20;;;;;;;;;;6345758;28;20113;-76
2023/09/25 00:49:38;;;;;;;12.30;5.28;;;;;;;;;;6284822;28;20141;-77
2023/09/25 00:52:42;;;;;;;15.85;5.18;;;;;;;;;;6306538;28;20058;-77
2023/09/25 00:55:44;;;;;;;10.63;4.70;;;;;;;;;;6332669;28;20158;-77
2023/09/25 00:58:49;;;;;;;8.88;4.20;;;;;;;;;;6332820;28;20078;-76
2023/09/25 01:01:52;;;;;;;10.48;3.88;;;;;;;;;;6298803;28;20051;-77
2023/09/25 01:05:01;;;;;;;13.98;3.78;;;;;;;;;;6325601;28;20040;-77
2023/09/25 01:08:04;;;;;;;8.98;3.80;;;;;;;;;;6320007;28;20041;-76
2023/09/25 01:11:08;;;;;;;7.70;4.15;;;;;;;;;;6293187;28;20055;-76
2023/09/25 01:14:10;;;;;;;11.25;4.40;;;;;;;;;;6316320;28;20101;-76
2023/09/25 01:17:14;;;;;;;8.57;3.72;;;;;;;;;;6313235;28;20043;-76
2023/09/25 01:20:17;;;;;;;8.63;4.18;;;;;;;;;;6320028;28;20100;-76
2023/09/25 01:23:21;;;;;;;;;;;;;;;;;;6305734;28;20044;-76
2023/09/25 01:26:25;;;;;;;11.23;4.13;;;;;;;;;;6314939;28;19934;-77
2023/09/25 01:29:28;;;;;;;9.13;4.43;;;;;;;;;;6345496;28;20046;-76
2023/09/25 01:32:31;;;;;;;8.90;4.78;;;;;;;;;;6313942;28;20044;-77
2023/09/25 01:35:33;;;;;;;7.38;5.13;;;;;;;;;;6315760;28;20052;-76
2023/09/25 01:38:35;;;;;;;7.03;5.35;;;;;;;;;;6309500;28;20044;-77
2023/09/25 01:41:38;;;;;;;9.75;4.57;;;;;;;;;;6328537;28;20074;-76
2023/09/25 01:44:41;;;;;;;8.90;4.10;;;;;;;;;;6301626;28;20048;-77
2023/09/25 01:47:50;;;;;;;8.63;4.00;;;;;;;;;;6327108;28;20059;-76
2023/09/25 01:50:55;;;;;;;11.60;4.13;;;;;;;;;;6322277;28;20032;-76
2023/09/25 01:53:57;;;;;;;9.85;4.38;;;;;;;;;;6303379;28;20078;-76
2023/09/25 01:56:59;;;;;;;8.88;3.90;;;;;;;;;;6338396;28;20074;-76
2023/09/25 02:00:06;;;;;;;6.60;3.38;;;;;;;;;;6316999;28;20872;-75
2023/09/25 02:03:12;;;;;;;8.23;3.83;;;;;;;;;;6323950;28;20097;-77
2023/09/25 02:06:15;;;;;;;9.35;4.43;;;;;;;;;;6333138;28;20048;-76
2023/09/25 02:09:18;;;;;;;8.05;3.78;;;;;;;;;;6342429;28;20051;-76
2023/09/25 02:12:20;;;;;;;9.95;3.10;;;;;;;;;;6291256;28;20044;-77
2023/09/25 02:15:23;;;;;;;10.02;3.83;;;;;;;;;;6325699;28;20052;-76
2023/09/25 02:18:25;;;;;;;7.75;3.67;;;;;;;;;;6307141;28;20108;-76
2023/09/25 02:21:27;;;;;;;8.82;4.05;;;;;;;;;;6290210;28;20036;-79
2023/09/25 02:24:30;;;;;;;7.53;4.18;;;;;;;;;;6329265;28;20066;-77
2023/09/25 02:27:33;;;;;;;8.38;3.30;;;;;;;;;;6304102;28;20103;-78
2023/09/25 02:30:36;;;;;;;7.15;3.58;;;;;;;;;;6328093;28;20048;-75
2023/09/25 02:33:38;;;;;;;8.80;3.92;;;;;;;;;;6335788;28;20097;-77
2023/09/25 02:36:41;;;;;;;7.32;3.33;;;;;;;;;;6349994;28;20036;-77
2023/09/25 02:39:43;;;;;;;7.25;3.35;;;;;;;;;;6300109;28;20105;-78
2023/09/25 02:42:46;;;;;;;6.30;3.15;;;;;;;;;;6305189;28;20040;-78
2023/09/25 02:45:51;;;;;;;8.48;3.90;;;;;;;;;;6305088;28;20067;-76
2023/09/25 02:48:54;;;;;;;6.35;3.72;;;;;;;;;;6304722;28;20047;-78
2023/09/25 02:51:57;;;;;;;7.35;3.67;;;;;;;;;;6297221;28;20051;-77
2023/09/25 02:55:00;;;;;;;6.32;3.33;;;;;;;;;;6314322;28;20048;-77
2023/09/25 02:58:02;;;;;;;9.32;4.15;;;;;;;;;;6299175;28;20040;-78
2023/09/25 03:01:05;;;;;;;6.40;3.47;;;;;;;;;;6288576;28;20063;-79
2023/09/25 03:04:07;;;;;;;8.85;3.72;;;;;;;;;;6304901;28;20044;-78
2023/09/25 03:07:10;;;;;;;8.25;4.78;;;;;;;;;;6271488;28;20591;-78
2023/09/25 03:10:13;;;;;;;8.27;4.30;;;;;;;;;;6317898;28;20048;-78
2023/09/25 03:13:16;;;;;;;7.00;4.43;;;;;;;;;;6288601;28;20629;-78
2023/09/25 03:16:19;;;;;;;8.95;5.10;;;;;;;;;;6277507;28;20433;-78
2023/09/25 03:19:21;;;;;;;7.38;4.70;;;;;;;;;;6307248;28;20540;-78
2023/09/25 03:22:24;;;;;;;9.05;4.30;;;;;;;;;;6322435;28;20075;-78
2023/09/25 03:25:27;;;;;;;15.63;5.07;;;;;;;;;;6306030;28;20123;-77
2023/09/25 03:28:30;;;;;;;8.35;4.65;;;;;;;;;;6306475;28;20054;-78
2023/09/25 03:31:33;;;;;;;7.05;4.78;;;;;;;;;;6290036;28;20036;-78
2023/09/25 03:34:36;;;;;;;8.05;4.75;;;;;;;;;;6305069;28;20558;-78
2023/09/25 03:37:43;;;;;;;9.27;4.63;;;;;;;;;;6308910;28;20094;-77
2023/09/25 03:40:45;;;;;;;9.75;5.45;;;;;;;;;;6273169;28;20052;-77
2023/09/25 03:43:47;;;;;;;6.43;5.05;;;;;;;;;;6287411;28;20186;-78
2023/09/25 03:46:49;;;;;;;9.88;5.10;;;;;;;;;;6314670;28;20044;-77
2023/09/25 03:49:51;;;;;;;9.55;5.82;;;;;;;;;;6312673;28;20044;-77
2023/09/25 03:52:58;;;;;;;9.05;5.05;;;;;;;;;;6319497;28;20062;-78
2023/09/25 03:56:00;;;;;;;8.73;4.30;;;;;;;;;;6293649;28;20038;-77
2023/09/25 03:59:06;;;;;;;8.48;5.18;;;;;;;;;;6304065;28;20032;-78
2023/09/25 04:02:08;;;;;;;12.30;5.57;;;;;;;;;;6316832;28;20536;-78
2023/09/25 04:05:12;;;;;;;9.70;5.28;;;;;;;;;;6320801;28;20109;-78
2023/09/25 04:08:14;;;;;;;13.55;4.85;;;;;;;;;;6321604;28;20082;-77
2023/09/25 04:11:16;;;;;;;7.13;5.18;;;;;;;;;;6282798;28;20575;-78
2023/09/25 04:14:18;;;;;;;8.05;4.28;;;;;;;;;;6288552;28;20101;-80
2023/09/25 04:17:21;;;;;;;12.60;4.72;;;;;;;;;;6302087;28;20052;-78
2023/09/25 04:20:31;;;;;;;9.93;5.28;;;;;;;;;;6280472;28;20048;-77
2023/09/25 04:23:34;;;;;;;6.75;4.80;;;;;;;;;;6316659;28;20051;-78
2023/09/25 04:26:39;;;;;;;7.88;4.72;;;;;;;;;;6339283;28;20051;-78
2023/09/25 04:29:42;;;;;;;6.65;5.35;;;;;;;;;;6299680;28;20102;-77
2023/09/25 04:32:46;;;;;;;10.02;4.72;;;;;;;;;;6326591;28;20043;-73
2023/09/25 04:35:48;;;;;;;6.75;5.22;;;;;;;;;;6308387;28;20138;-75
2023/09/25 04:38:51;;;;;;;9.88;6.90;;;;;;;;;;6296541;28;20048;-76
2023/09/25 04:41:53;;;;;;;10.25;5.35;;;;;;;;;;6330980;28;20059;-64
2023/09/25 04:44:55;;;;;;;9.27;4.70;;;;;;;;;;6305756;28;20044;-63
2023/09/25 04:47:58;;;;;;;7.47;4.90;;;;;;;;;;6295126;28;20043;-68
2023/09/25 04:51:00;;;;;;;10.65;4.95;;;;;;;;;;6315589;28;20036;-75
2023/09/25 04:54:03;;;;;;;9.68;4.97;;;;;;;;;;6295175;28;20044;-78
2023/09/25 04:57:07;;;;;;;8.82;4.18;;;;;;;;;;6324679;28;20050;-78
2023/09/25 05:00:18;;;;;;;8.10;5.00;;;;;;;;;;6307970;28;20056;-77
2023/09/25 05:03:21;;;;;;;9.82;4.75;;;;;;;;;;6313945;28;20043;-76
2023/09/25 05:06:24;;;;;;;10.98;5.13;;;;;;;;;;6292785;28;20044;-77
2023/09/25 05:09:27;;;;;;;8.90;4.40;;;;;;;;;;6308450;28;20040;-77
2023/09/25 05:12:29;;;;;;;8.43;5.93;;;;;;;;;;6292567;28;20047;-77
2023/09/25 05:15:34;;;;;;;13.00;5.25;;;;;;;;;;6287115;28;20109;-76
2023/09/25 05:18:37;;;;;;;;;;;;;;;;;;6295149;28;20079;-76
2023/09/25 05:21:39;;;;;;;7.25;5.00;;;;;;;;;;6278584;28;19932;-76
2023/09/25 05:24:41;;;;;;;8.73;6.18;;;;;;;;;;6340686;28;20152;-77
2023/09/25 05:27:46;;;;;;;12.25;5.57;;;;;;;;;;6307003;28;20505;-77
2023/09/25 05:30:52;;;;;;;8.05;6.20;;;;;;;;;;6303619;28;20048;-81
2023/09/25 05:33:55;;;;;;;10.20;6.28;;;;;;;;;;6293003;28;20130;-69
2023/09/25 05:36:57;;;;;;;11.63;5.97;;;;;;;;;;6320774;28;20091;-66
2023/09/25 05:40:05;;;;;;;9.48;6.78;;;;;;;;;;6288290;28;20079;-74
2023/09/25 05:43:08;;;;;;;10.27;7.18;;;;;;;;;;6261007;28;20527;-70
2023/09/25 05:46:11;;;;;;;10.02;5.82;;;;;;;;;;6313983;28;20111;-71
2023/09/25 05:49:13;;;;;;;8.75;5.78;;;;;;;;;;6304568;28;20237;-71
2023/09/25 05:52:15;;;;;;;8.50;5.35;;;;;;;;;;6312491;28;20138;-75
2023/09/25 05:55:17;;;;;;;7.65;5.78;;;;;;;;;;6316628;28;20452;-64
2023/09/25 05:58:20;;;;;;;8.52;5.43;;;;;;;;;;6308900;28;20041;-64
2023/09/25 06:01:22;;;;;;;7.53;5.35;;;;;;;;;;6313129;28;20040;-65
2023/09/25 06:04:25;;;;;;;12.40;5.97;;;;;;;;;;6307994;28;20055;-64
2023/09/25 06:07:30;;;;;;;6.57;4.43;;;;;;;;;;6333603;28;20059;-73
2023/09/25 06:10:34;;;;;;;6.75;5.25;;;;;;;;;;6297242;28;20091;-75
2023/09/25 06:13:36;;;;;;;8.18;5.25;;;;;;;;;;6288429;28;20921;-73
2023/09/25 06:16:41;;;;;;;7.13;5.63;;;;;;;;;;6313898;28;20059;-73
2023/09/25 06:19:45;;;;;;;9.00;5.70;;;;;;;;;;6297110;28;20043;-72
2023/09/25 06:22:47;;;;;;;11.27;6.97;;;;;;;;;;6297329;28;20048;-72
2023/09/25 06:25:49;;;;;;;7.63;5.07;;;;;;;;;;6319549;28;20547;-72
2023/09/25 06:28:51;;;;;;;7.25;5.63;;;;;;;;;;6302983;28;20048;-72
2023/09/25 06:31:54;;;;;;;7.57;5.65;;;;;;;;;;6320580;28;20036;-72
2023/09/25 06:35:04;;;;;;;9.48;6.03;;;;;;;;;;6304223;28;20075;-73
2023/09/25 06:38:09;;;;;;;10.80;5.68;;;;;;;;;;6315404;28;20051;-72
2023/09/25 06:41:11;;;;;;;8.70;5.65;;;;;;;;;;6302838;28;20152;-73
2023/09/25 06:44:13;;;;;;;7.75;5.38;;;;;;;;;;6277703;28;20048;-72
2023/09/25 06:47:15;;;;;;;11.18;5.07;;;;;;;;;;6294818;28;20086;-72
2023/09/25 06:50:17;;;;;;;7.50;4.40;;;;;;;;;;6316481;28;20059;-72
2023/09/25 06:53:20;;;;;;;7.97;5.63;;;;;;;;;;6315636;28;20036;-73
2023/09/25 06:56:23;;;;;;;8.18;5.03;;;;;;;;;;6316602;28;20040;-73
2023/09/25 06:59:28;;;;;;;9.40;5.05;;;;;;;;;;6303573;28;20041;-72
2023/09/25 07:02:31;;;;;;;8.70;4.50;;;;;;;;;;6304962;28;20036;-72
2023/09/25 07:05:33;;;;;;;7.43;4.82;;;;;;;;;;6298995;28;20426;-72
2023/09/25 07:08:38;;;;;;;8.20;4.97;;;;;;;;;;6298867;28;20055;-72
2023/09/25 07:11:41;;;;;;;9.00;4.72;;;;;;;;;;6316683;28;20402;-72
2023/09/25 07:14:55;;;;;;;6.32;4.45;;;;;;;;;;6316079;28;20511;-72
2023/09/25 07:17:59;;;;;;;7.75;5.13;;;;;;;;;;6299429;28;20093;-72
2023/09/25 07:21:01;;;;;;;8.32;4.45;;;;;;;;;;6316502;28;20539;-72
2023/09/25 07:24:04;;;;;;;8.10;4.93;;;;;;;;;;6315556;28;20036;-73
2023/09/25 07:27:06;;;;;;;7.38;4.68;;;;;;;;;;6315690;28;20075;-74
2023/09/25 07:30:11;;;;;;;6.95;3.75;;;;;;;;;;6274052;28;20052;-71
2023/09/25 07:33:13;;;;;;;5.30;3.17;;;;;;;;;;6303503;28;20036;-73
2023/09/25 07:36:20;;;;;;;7.13;4.10;;;;;;;;;;6314789;28;20056;-73
2023/09/25 07:39:23;;;;;;;9.05;3.70;;;;;;;;;;6289651;28;20193;-72
2023/09/25 07:42:25;;;;;;;6.60;3.53;;;;;;;;;;6314618;28;20237;-73
2023/09/25 07:45:32;;;;;;;5.68;3.90;;;;;;;;;;6302787;28;20050;-72
2023/09/25 07:48:38;;;;;;;7.43;3.80;;;;;;;;;;6313356;28;20048;-73
2023/09/25 07:51:41;;;;;;;8.55;3.22;;;;;;;;;;6302770;28;20074;-72
2023/09/25 07:54:48;;;;;;;8.15;3.92;;;;;;;;;;6317030;28;20048;-73
2023/09/25 07:57:50;;;;;;;6.20;3.55;;;;;;;;;;6297156;28;20045;-73
2023/09/25 08:00:55;;;;;;;9.00;3.88;;;;;;;;;;6314096;28;20052;-74
2023/09/25 08:03:59;;;;;;;9.18;3.40;;;;;;;;;;6287645;28;20047;-72
2023/09/25 08:07:04;;;;;;;10.85;4.70;;;;;;;;;;6312867;28;20055;-72
2023/09/25 08:10:11;;;;;;;7.88;4.88;;;;;;;;;;6293017;28;20055;-73
2023/09/25 08:13:13;;;;;;;7.32;4.15;;;;;;;;;;6293619;28;20039;-73
2023/09/25 08:16:18;;;;;;;7.25;3.30;;;;;;;;;;6293348;28;20637;-74
2023/09/25 08:19:22;;;;;;;7.13;3.75;;;;;;;;;;6310080;28;20047;-73
2023/09/25 08:22:25;;;;;;;8.38;3.25;;;;;;;;;;6294193;28;20052;-73
2023/09/25 08:25:27;;;;;;;7.28;3.55;;;;;;;;;;6306814;28;20040;-73
2023/09/25 08:28:30;;;;;;;7.30;3.80;;;;;;;;;;6294000;28;20082;-74
2023/09/25 08:31:34;;;;;;;7.68;3.70;;;;;;;;;;6293331;28;20606;-73
2023/09/25 08:34:37;;;;;;;6.20;3.33;;;;;;;;;;6272672;28;20051;-73
2023/09/25 08:37:42;;;;;;;6.05;3.15;;;;;;;;;;6292562;28;20097;-73
2023/09/25 08:40:49;;;;;;;7.15;3.47;;;;;;;;;;6298096;28;20063;-73
2023/09/25 08:43:52;;;;;;;5.57;2.92;;;;;;;;;;6260703;28;20089;-73
2023/09/25 08:46:59;;;;;;;8.57;4.15;;;;;;;;;;6308023;28;20048;-73
2023/09/25 08:50:02;;;;;;;6.82;3.95;;;;;;;;;;6297528;28;20045;-73
2023/09/25 08:53:06;;;;;;;7.30;4.35;;;;;;;;;;6297352;28;20036;-73
2023/09/25 08:56:12;;;;;;;8.10;3.20;;;;;;;;;;6299847;28;20044;-74
2023/09/25 08:59:16;;;;;;;6.93;4.00;;;;;;;;;;6317552;28;20048;-74
2023/09/25 09:02:18;;;;;;;7.20;3.15;;;;;;;;;;6298911;28;20036;-73
2023/09/25 09:05:21;;;;;;;10.05;3.67;;;;;;;;;;6301906;28;20143;-73
2023/09/25 09:08:28;;;;;;;6.40;3.40;;;;;;;;;;6288079;28;20071;-73
2023/09/25 09:11:31;;;;;;;7.40;5.43;;;;;;;;;;6283654;28;20445;-74
2023/09/25 09:14:37;;;;;;;9.70;3.45;;;;;;;;;;6314359;28;20036;-73
2023/09/25 09:17:39;;;;;;;5.57;3.47;;;;;;;;;;6319615;28;20049;-66
2023/09/25 09:20:42;;;;;;;6.03;3.70;;;;;;;;;;6314848;28;20044;-66
2023/09/25 09:23:44;;;;;;;5.28;3.22;;;;;;;;;;6280443;28;20051;-66
2023/09/25 09:26:46;;;;;;;6.80;3.50;;;;;;;;;;6315949;28;20048;-66
2023/09/25 09:29:52;;;;;;;8.77;3.80;;;;;;;;;;6302671;28;20595;-67
2023/09/25 09:32:54;;;;;;;6.22;3.03;;;;;;;;;;6301512;28;20132;-66
2023/09/25 09:35:56;;;;;;;11.88;3.72;;;;;;;;;;6297533;28;20486;-67
2023/09/25 09:38:59;;;;;;;9.57;4.00;;;;;;;;;;6314440;28;20762;-70
2023/09/25 09:42:05;;;;;;;7.53;3.28;;;;;;;;;;6310268;28;20055;-66
2023/09/25 09:45:08;;;;;;;7.70;2.90;;;;;;;;;;6310826;28;20094;-66
2023/09/25 09:48:11;;;;;;;7.28;3.67;;;;;;;;;;6313959;28;20102;-66
2023/09/25 09:51:13;;;;;;;9.10;3.45;;;;;;;;;;6312653;28;20101;-66
2023/09/25 09:54:18;;;;;;;8.52;3.80;;;;;;;;;;6308264;28;20040;-66
2023/09/25 09:57:20;;;;;;;;;;;;;;;;;;6297304;28;20125;-67
2023/09/25 10:00:23;;;;;;;6.88;4.38;;;;;;;;;;6298324;28;20328;-67
2023/09/25 10:03:25;;;;;;;9.02;3.50;;;;;;;;;;6301252;28;20050;-67
2023/09/25 10:06:28;;;;;;;8.57;3.70;;;;;;;;;;6305620;28;20055;-67
2023/09/25 10:09:31;;;;;;;6.75;3.45;;;;;;;;;;6312675;28;20824;-67
2023/09/25 10:13:01;;;;;;;7.57;4.82;;;;;;;;;;6319690;28;20032;-67
2023/09/25 10:16:03;;;;;;;8.98;3.80;;;;;;;;;;6304846;28;20506;-67
2023/09/25 10:19:19;;;;;;;9.02;4.40;;;;;;;;;;6313250;28;20068;-67
2023/09/25 10:22:31;;;;;;;8.85;3.55;;;;;;;;;;6306358;28;20100;-66
2023/09/25 10:25:52;;;;;;;5.97;3.55;;;;;;;;;;6316689;28;20062;-66
2023/09/25 10:28:58;;;;;;;9.50;4.07;;;;;;;;;;6317748;28;20046;-67
2023/09/25 10:32:01;;;;;;;8.80;3.90;;;;;;;;;;6319502;28;20044;-67
2023/09/25 10:35:38;;;;;;;6.82;3.45;;;;;;;;;;6320062;28;20092;-67
2023/09/25 10:38:41;;;;;;;6.97;3.63;;;;;;;;;;6314568;28;20055;-66
2023/09/25 10:41:47;;;;;;;7.25;3.38;;;;;;;;;;6323876;28;20739;-66
2023/09/25 10:44:49;;;;;;;7.55;3.35;;;;;;;;;;6320049;28;20040;-66
2023/09/25 10:47:51;;;;;;;6.70;3.55;;;;;;;;;;6311832;28;20051;-66
2023/09/25 10:50:54;;;;;;;6.68;3.58;;;;;;;;;;6308148;28;20068;-66
2023/09/25 10:53:56;;;;;;;8.02;4.15;;;;;;;;;;6297465;28;20086;-67
2023/09/25 10:57:02;;;;;;;6.50;3.30;;;;;;;;;;6296596;28;20082;-67
2023/09/25 11:00:10;;;;;;;30.10;5.97;;;;;;;;;;6305235;28;20143;-66
2023/09/25 11:03:13;;;;;;;31.80;6.68;;;;;;;;;;6313315;28;20130;-66
2023/09/25 11:06:15;;;;;;;13.73;4.78;;;;;;;;;;6308313;28;20048;-67
2023/09/25 11:09:17;;;;;;;25.63;5.93;;;;;;;;;;6310854;28;20052;-66
2023/09/25 11:12:19;;;;;;;7.07;3.95;;;;;;;;;;6316135;28;20052;-66
2023/09/25 11:15:22;;;;;;;10.30;4.25;;;;;;;;;;6315879;28;20056;-66
2023/09/25 11:18:24;;;;;;;7.28;3.67;;;;;;;;;;6294661;28;20187;-66
2023/09/25 11:21:31;;;;;;;24.52;6.93;;;;;;;;;;6319454;28;20047;-66
2023/09/25 11:24:34;;;;;;;18.52;5.45;;;;;;;;;;6304072;28;20051;-65
2023/09/25 11:27:37;;;;;;;20.48;6.20;;;;;;;;;;6310820;28;20052;-66
2023/09/25 11:30:41;;;;;;;8.93;4.78;;;;;;;;;;6318885;28;20044;-66
2023/09/25 11:33:44;;;;;;;7.32;4.25;;;;;;;;;;6314658;28;20047;-66
2023/09/25 11:36:47;;;;;;;12.82;4.88;;;;;;;;;;6312772;28;20044;-67
2023/09/25 11:39:49;;;;;;;8.30;5.85;;;;;;;;;;6317414;28;20040;-67
2023/09/25 11:42:52;;;;;;;7.55;4.78;;;;;;;;;;6300911;28;20044;-77
2023/09/25 11:45:54;;;;;;;12.15;4.50;;;;;;;;;;6287944;28;20121;-74
2023/09/25 11:48:58;;;;;;;9.68;4.97;;;;;;;;;;6299974;28;20036;-75
2023/09/25 11:52:00;;;;;;;10.98;6.03;;;;;;;;;;6279915;28;20071;-74
2023/09/25 11:55:04;;;;;;;9.48;5.28;;;;;;;;;;6277375;28;20040;-74
2023/09/25 11:58:08;;;;;;;12.48;5.75;;;;;;;;;;6281624;28;20040;-74
2023/09/25 12:01:12;;;;;;;10.43;5.43;;;;;;;;;;6274693;28;20490;-75
2023/09/25 12:04:17;;;;;;;10.85;5.97;;;;;;;;;;6314868;28;20093;-76
2023/09/25 12:07:20;;;;;;;15.68;7.28;;;;;;;;;;6298907;28;20123;-65
2023/09/25 12:10:22;;;;;;;11.38;6.32;;;;;;;;;;6327961;28;20456;-66
2023/09/25 12:13:26;;;;;;;13.20;5.28;;;;;;;;;;6305395;28;20513;-74
2023/09/25 12:16:28;;;;;;;;;;;;;;;;;;6276954;28;20897;-75
2023/09/25 12:19:30;;;;;;;14.05;5.60;;;;;;;;;;6298830;28;19971;-68
2023/09/25 12:22:33;;;;;;;10.73;6.35;;;;;;;;;;6309982;28;20814;-68
2023/09/25 12:25:36;;;;;;;13.63;6.63;;;;;;;;;;6311523;28;20051;-68
2023/09/25 12:28:38;;;;;;;14.93;7.30;;;;;;;;;;6306029;28;20531;-68
2023/09/25 12:31:40;;;;;;;15.77;6.15;;;;;;;;;;6310157;28;20055;-68
2023/09/25 12:34:42;;;;;;;10.60;6.68;;;;;;;;;;6306707;28;20040;-67
2023/09/25 12:37:47;;;;;;;13.13;5.85;;;;;;;;;;6306570;28;20127;-68
2023/09/25 12:40:49;;;;;;;11.00;6.00;;;;;;;;;;6307589;28;20044;-74
2023/09/25 12:43:54;;;;;;;11.18;6.38;;;;;;;;;;6289747;28;20044;-75
2023/09/25 12:46:56;;;;;;;11.02;6.05;;;;;;;;;;6277036;28;20040;-75
2023/09/25 12:49:58;;;;;;;12.60;5.53;;;;;;;;;;6298647;28;20513;-74
2023/09/25 12:53:02;;;;;;;11.32;6.13;;;;;;;;;;6293652;28;20229;-75
2023/09/25 12:56:04;;;;;;;11.95;6.75;;;;;;;;;;6288217;28;20083;-75
2023/09/25 12:59:06;;;;;;;13.05;6.05;;;;;;;;;;6312830;28;20040;-65
2023/09/25 13:02:08;;;;;;;16.55;5.40;;;;;;;;;;6303252;28;20197;-72
2023/09/25 13:05:11;;;;;;;13.20;5.18;;;;;;;;;;6273228;28;20497;-71
2023/09/25 13:08:13;;;;;;;12.77;5.97;;;;;;;;;;6285594;28;20105;-72
2023/09/25 13:11:16;;;;;;;15.50;5.15;;;;;;;;;;6297666;28;20047;-71
2023/09/25 13:14:19;;;;;;;9.40;5.25;;;;;;;;;;6300262;28;20040;-72
2023/09/25 13:17:22;;;;;;;11.50;4.95;;;;;;;;;;6307797;28;20055;-72
2023/09/25 13:20:26;;;;;;;12.32;5.40;;;;;;;;;;6320758;28;20054;-72
2023/09/25 13:23:28;;;;;;;14.75;5.20;;;;;;;;;;6296666;28;20540;-73
2023/09/25 13:26:30;;;;;;;9.48;4.60;;;;;;;;;;6314363;28;20093;-72
2023/09/25 13:29:32;;;;;;;10.43;5.55;;;;;;;;;;6306539;28;20036;-72
2023/09/25 13:32:34;;;;;;;9.05;4.93;;;;;;;;;;6316112;28;20728;-71
2023/09/25 13:35:37;;;;;;;12.85;5.85;;;;;;;;;;6309774;28;20707;-72
2023/09/25 13:38:40;;;;;;;7.65;5.05;;;;;;;;;;6308352;28;20598;-72
2023/09/25 13:41:42;;;;;;;7.78;4.28;;;;;;;;;;6309513;28;20733;-72
2023/09/25 13:44:44;;;;;;;8.27;4.43;;;;;;;;;;6282597;28;20047;-72
2023/09/25 13:47:47;;;;;;;12.98;4.90;;;;;;;;;;6312868;28;20032;-72
2023/09/25 13:50:50;;;;;;;7.57;3.83;;;;;;;;;;6288379;28;20064;-73
2023/09/25 13:53:53;;;;;;;8.73;4.13;;;;;;;;;;6307321;28;20547;-72
2023/09/25 13:56:56;;;;;;;7.32;4.05;;;;;;;;;;6311653;28;20051;-73
2023/09/25 14:00:01;;;;;;;9.90;4.18;;;;;;;;;;6308513;28;20040;-73
2023/09/25 14:03:13;;;;;;;7.75;4.30;;;;;;;;;;6290142;28;20125;-72
2023/09/25 14:06:16;;;;;;;8.00;4.97;;;;;;;;;;6303010;28;20581;-74
2023/09/25 14:09:20;;;;;;;8.77;4.38;;;;;;;;;;6314726;28;20040;-72
2023/09/25 14:12:22;;;;;;;6.90;5.15;;;;;;;;;;6288575;28;20445;-72
2023/09/25 14:15:24;;;;;;;6.43;4.35;;;;;;;;;;6314078;28;20097;-72
2023/09/25 14:18:26;;;;;;;7.50;4.03;;;;;;;;;;6285617;28;20168;-72
2023/09/25 14:21:29;;;;;;;8.68;4.70;;;;;;;;;;6307937;28;20059;-72
2023/09/25 14:24:33;;;;;;;8.82;4.75;;;;;;;;;;6293785;28;20101;-73
2023/09/25 14:27:36;;;;;;;11.82;5.75;;;;;;;;;;6300110;28;20055;-73
2023/09/25 14:30:38;;;;;;;6.13;4.45;;;;;;;;;;6311299;28;20055;-73
2023/09/25 14:33:41;;;;;;;8.90;4.93;;;;;;;;;;6276199;28;20098;-73
2023/09/25 14:36:43;;;;;;;9.35;5.80;;;;;;;;;;6310384;28;20056;-78
2023/09/25 14:39:48;;;;;;;6.57;4.90;;;;;;;;;;6265698;28;20767;-68
2023/09/25 14:42:51;;;;;;;7.70;4.35;;;;;;;;;;6283637;28;20047;-73
2023/09/25 14:45:53;;;;;;;9.70;4.75;;;;;;;;;;6284884;28;20036;-74
2023/09/25 14:48:55;;;;;;;10.25;5.40;;;;;;;;;;6277792;28;20436;-64
2023/09/25 14:51:58;;;;;;;7.07;4.38;;;;;;;;;;6302074;28;20041;-64
2023/09/25 14:55:00;;;;;;;7.05;4.55;;;;;;;;;;6302680;28;20078;-64
2023/09/25 14:58:02;;;;;;;7.28;4.82;;;;;;;;;;6308844;28;20528;-77
2023/09/25 15:01:05;;;;;;;9.15;4.97;;;;;;;;;;6309720;28;20802;-73
2023/09/25 15:04:08;;;;;;;7.40;4.72;;;;;;;;;;6303014;28;20211;-73
2023/09/25 15:07:10;;;;;;;8.73;5.03;;;;;;;;;;6290685;28;20059;-73
2023/09/25 15:10:14;;;;;;;9.95;5.07;;;;;;;;;;6286108;28;20048;-73
2023/09/25 15:13:16;;;;;;;11.07;5.20;;;;;;;;;;6272334;28;20054;-73
2023/09/25 15:16:19;;;;;;;8.40;4.57;;;;;;;;;;6311177;28;20052;-73
2023/09/25 15:19:21;;;;;;;6.13;4.75;;;;;;;;;;6262593;28;20044;-73
2023/09/25 15:22:26;;;;;;;10.02;5.20;;;;;;;;;;6295880;28;20085;-73
2023/09/25 15:25:30;;;;;;;9.48;4.85;;;;;;;;;;6308165;28;20040;-73
2023/09/25 15:28:33;;;;;;;9.60;4.63;;;;;;;;;;6308002;28;20071;-73
2023/09/25 15:31:37;;;;;;;6.68;4.78;;;;;;;;;;6302122;28;20048;-72
2023/09/25 15:34:43;;;;;;;6.78;4.75;;;;;;;;;;6308262;28;20076;-73
2023/09/25 15:37:45;;;;;;;7.97;4.78;;;;;;;;;;6298737;28;20221;-73
2023/09/25 15:40:49;;;;;;;6.53;5.10;;;;;;;;;;6299937;28;20048;-73
2023/09/25 15:43:51;;;;;;;8.25;4.70;;;;;;;;;;6287696;28;20975;-73
2023/09/25 15:46:53;;;;;;;8.60;5.70;;;;;;;;;;6292475;28;20053;-73
2023/09/25 15:49:56;;;;;;;8.95;4.72;;;;;;;;;;6303573;28;20044;-73
2023/09/25 15:52:58;;;;;;;14.60;4.75;;;;;;;;;;6300985;28;20055;-74
2023/09/25 15:56:01;;;;;;;9.20;4.88;;;;;;;;;;6314949;28;20104;-74
2023/09/25 15:59:04;;;;;;;9.50;4.65;;;;;;;;;;6309902;28;20055;-73
2023/09/25 16:02:10;;;;;;;9.93;5.90;;;;;;;;;;6299646;28;20055;-71
2023/09/25 16:05:12;;;;;;;7.30;4.40;;;;;;;;;;6276850;28;20048;-72
2023/09/25 16:08:15;;;;;;;7.82;5.72;;;;;;;;;;6303954;28;20051;-71
2023/09/25 16:11:19;;;;;;;7.72;5.22;;;;;;;;;;6281718;28;20036;-72
2023/09/25 16:14:21;;;;;;;8.30;5.10;;;;;;;;;;6295264;28;20042;-72
2023/09/25 16:17:25;;;;;;;8.52;5.25;;;;;;;;;;6285117;28;20048;-72
2023/09/25 16:20:27;;;;;;;12.77;5.18;;;;;;;;;;6292602;28;20185;-62
2023/09/25 16:23:30;;;;;;;9.65;5.45;;;;;;;;;;6309177;28;20043;-62
2023/09/25 16:26:32;;;;;;;9.75;5.43;;;;;;;;;;6307246;28;20060;-62
2023/09/25 16:29:35;;;;;;;7.22;4.57;;;;;;;;;;6306571;28;20066;-62
2023/09/25 16:32:38;;;;;;;8.48;4.75;;;;;;;;;;6308341;28;20656;-63
2023/09/25 16:35:41;;;;;;;8.05;5.10;;;;;;;;;;6309658;28;20594;-62
2023/09/25 16:38:43;;;;;;;8.88;4.53;;;;;;;;;;6305612;28;20048;-62
2023/09/25 16:41:45;;;;;;;11.63;4.72;;;;;;;;;;6307990;28;21165;-62
2023/09/25 16:44:47;;;;;;;8.77;4.70;;;;;;;;;;6306635;28;20040;-63
2023/09/25 16:47:50;;;;;;;10.35;5.60;;;;;;;;;;6306943;28;20131;-63
2023/09/25 16:50:52;;;;;;;7.75;4.13;;;;;;;;;;6304180;28;20047;-63
2023/09/25 16:53:54;;;;;;;9.13;4.80;;;;;;;;;;6310162;28;20044;-63
2023/09/25 16:56:56;;;;;;;7.57;5.60;;;;;;;;;;6283368;28;20131;-73
2023/09/25 17:00:00;;;;;;;8.07;5.18;;;;;;;;;;6285365;28;20517;-72
2023/09/25 17:03:02;;;;;;;8.65;4.88;;;;;;;;;;6294180;28;20525;-72
2023/09/25 17:06:06;;;;;;;11.25;5.75;;;;;;;;;;6285615;28;20044;-72
2023/09/25 17:09:08;;;;;;;8.63;4.53;;;;;;;;;;6297365;28;20810;-72
2023/09/25 17:12:14;;;;;;;10.60;6.30;;;;;;;;;;6303561;28;20573;-74
2023/09/25 17:15:16;;;;;;;9.52;5.13;;;;;;;;;;6303607;28;20059;-74
2023/09/25 17:18:19;;;;;;;8.77;5.05;;;;;;;;;;6273659;28;20048;-74
2023/09/25 17:21:21;;;;;;;8.75;5.28;;;;;;;;;;6277588;28;20468;-74
2023/09/25 17:24:24;;;;;;;16.25;3.90;;;;;;;;;;6288055;28;20127;-74
2023/09/25 17:27:26;;;;;;;15.63;4.88;;;;;;;;;;6298523;28;20053;-74
2023/09/25 17:30:32;;;;;;;13.23;4.75;;;;;;;;;;6287620;28;20056;-74
2023/09/25 17:33:37;;;;;;;7.70;4.07;;;;;;;;;;6285845;28;20036;-74
2023/09/25 17:36:39;;;;;;;8.60;3.63;;;;;;;;;;6305793;28;20048;-73
2023/09/25 17:39:41;;;;;;;10.80;3.83;;;;;;;;;;6292928;28;20059;-74
2023/09/25 17:42:44;;;;;;;9.30;4.28;;;;;;;;;;6302825;28;20050;-73
2023/09/25 17:45:46;;;;;;;8.60;4.15;;;;;;;;;;6296876;28;20475;-71
2023/09/25 17:48:48;;;;;;;6.03;3.88;;;;;;;;;;6308799;28;20705;-72
2023/09/25 17:51:52;;;;;;;12.40;3.58;;;;;;;;;;6281256;28;20525;-80
2023/09/25 17:54:56;;;;;;;7.78;3.80;;;;;;;;;;6282090;28;20044;-78
2023/09/25 17:57:58;;;;;;;7.32;4.15;;;;;;;;;;6302200;28;20056;-78
2023/09/25 18:01:00;;;;;;;6.97;4.13;;;;;;;;;;6314007;28;20051;-72
2023/09/25 18:04:03;;;;;;;7.85;3.83;;;;;;;;;;6313991;28;20043;-71
2023/09/25 18:07:07;;;;;;;8.27;4.05;;;;;;;;;;6312797;28;20443;-71
2023/09/25 18:10:09;;;;;;;9.25;3.70;;;;;;;;;;6291924;28;20142;-71
2023/09/25 18:13:11;;;;;;;10.93;4.90;;;;;;;;;;6322826;28;20048;-71
2023/09/25 18:16:13;;;;;;;8.00;4.32;;;;;;;;;;6319913;28;20055;-71